Time;durP1;ratioP1;P1;durP2;ratioP2;P2;SDS_P1;SDS_P2;PMS_P1;PMS_P2;Temp;Humidity;BMP_temperature;BMP_pressure;BME280_temperature;BME280_humidity;BME280_pressure;Samples;Min_cycle;Max_cycle;Signal;HPM_P1;HPM_P2
2022/03/27 00:00:19;;;;;;;;;;;10.70;87.60;;;;;;5095275;28;19931;-84
2022/03/27 00:02:45;;;;;;;;;;;10.90;86.50;;;;;;5095725;28;19959;-84
2022/03/27 00:05:11;;;;;;;;;;;11.10;85.40;;;;;;5077394;28;19908;-85
2022/03/27 00:07:37;;;;;;;;;;;11.20;83.00;;;;;;5095825;28;19915;-84
2022/03/27 00:10:03;;;;;;;;;;;11.20;83.00;;;;;;5095178;28;20002;-85
2022/03/27 00:12:29;;;;;;;;;;;10.90;84.10;;;;;;5063379;28;19923;-84
2022/03/27 00:14:54;;;;;;;;;;;10.50;86.00;;;;;;5075289;28;19908;-84
2022/03/27 00:17:20;;;;;;;;;;;10.40;87.70;;;;;;5069757;28;19956;-85
2022/03/27 00:19:45;;;;;;;;;;;10.30;87.30;;;;;;5054876;28;20374;-85
2022/03/27 00:22:11;;;;;;;;;;;10.50;87.50;;;;;;5054836;28;19912;-85
2022/03/27 00:24:37;;;;;;;;;;;10.60;86.70;;;;;;5055138;28;19909;-84
2022/03/27 00:27:03;;;;;;;;;;;10.40;89.10;;;;;;5055088;28;19913;-84
2022/03/27 00:29:29;;;;;;;;;;;10.50;90.00;;;;;;5054687;28;19909;-84
2022/03/27 00:31:54;;;;;;;;;;;10.40;90.10;;;;;;5036891;28;19962;-84
2022/03/27 00:34:21;;;;;;;;;;;10.30;90.20;;;;;;5054604;28;19936;-84
2022/03/27 00:36:47;;;;;;;;;;;10.30;90.30;;;;;;5055014;28;19915;-83
2022/03/27 00:39:12;;;;;;;;;;;10.40;90.10;;;;;;5054453;28;19962;-84
2022/03/27 00:41:38;;;;;;;;;;;10.30;90.20;;;;;;5054729;28;19952;-84
2022/03/27 00:44:04;;;;;;;;;;;10.30;90.30;;;;;;5036813;28;19909;-84
2022/03/27 00:46:29;;;;;;;;;;;10.20;90.00;;;;;;5054435;28;19923;-84
2022/03/27 00:48:55;;;;;;;;;;;9.80;90.20;;;;;;5054523;28;19909;-83
2022/03/27 00:51:21;;;;;;;;;;;9.90;90.80;;;;;;5054233;28;19943;-85
2022/03/27 00:53:46;;;;;;;;;;;10.10;90.80;;;;;;5053961;28;19909;-84
2022/03/27 00:56:12;;;;;;;;;;;10.40;89.20;;;;;;5054486;28;19963;-84
2022/03/27 00:58:37;;;;;;;;;;;10.40;88.50;;;;;;5054197;28;20499;-83
2022/03/27 01:01:13;;;;;;;;;;;10.30;89.10;;;;;;5035957;28;19909;-84
2022/03/27 01:03:39;;;;;;;;;;;10.20;88.40;;;;;;5054351;28;19912;-84
2022/03/27 01:06:08;;;;;;;;;;;10.20;88.40;;;;;;5036441;28;19995;-84
2022/03/27 01:11:21;;;;;;;;;;;10.00;88.80;;;;;;5016229;28;20296;-85
2022/03/27 01:13:52;;;;;;;;;;;10.00;89.60;;;;;;5054152;28;19912;-84
2022/03/27 01:16:38;;;;;;;;;;;9.90;90.60;;;;;;5054132;28;19916;-85
2022/03/27 01:19:04;;;;;;;;;;;9.90;90.50;;;;;;5049135;28;19970;-84
2022/03/27 01:21:30;;;;;;;;;;;9.90;90.30;;;;;;5053705;28;19909;-84
2022/03/27 01:23:56;;;;;;;;;;;9.90;89.10;;;;;;5054084;28;20380;-84
2022/03/27 01:26:23;;;;;;;;;;;9.80;90.00;;;;;;5053898;28;19944;-84
2022/03/27 01:28:49;;;;;;;;;;;9.70;89.90;;;;;;5053888;28;19996;-85
2022/03/27 01:31:15;;;;;;;;;;;9.80;91.00;;;;;;5053288;28;19931;-83
2022/03/27 01:33:40;;;;;;;;;;;9.80;90.80;;;;;;5053646;28;19909;-83
2022/03/27 01:36:06;;;;;;;;;;;9.60;91.60;;;;;;5053830;28;20250;-84
2022/03/27 01:38:32;;;;;;;;;;;9.50;91.40;;;;;;5053703;28;20104;-82
2022/03/27 01:40:57;;;;;;;;;;;9.60;90.70;;;;;;5070005;28;19908;-85
2022/03/27 01:43:23;;;;;;;;;;;9.50;91.30;;;;;;5072260;28;19917;-85
2022/03/27 01:45:49;;;;;;;;;;;9.30;92.10;;;;;;5073435;28;19908;-85
2022/03/27 01:48:15;;;;;;;;;;;9.20;93.10;;;;;;5073595;28;19909;-85
2022/03/27 01:50:40;;;;;;;;;;;9.20;92.90;;;;;;5073359;28;19909;-84
2022/03/27 01:53:06;;;;;;;;;;;9.40;92.60;;;;;;5073661;28;19958;-83
2022/03/27 01:55:32;;;;;;;;;;;9.50;91.40;;;;;;5073373;28;19999;-82
2022/03/27 01:57:57;;;;;;;;;;;9.30;91.70;;;;;;5071966;28;20007;-85
2022/03/27 02:00:23;;;;;;;;;;;9.30;91.40;;;;;;5073095;28;19915;-84
2022/03/27 02:02:48;;;;;;;;;;;9.20;91.30;;;;;;5073149;28;20311;-85
2022/03/27 02:05:14;;;;;;;;;;;9.30;91.00;;;;;;5073303;28;19908;-85
2022/03/27 02:07:44;;;;;;;;;;;9.10;91.50;;;;;;5073234;28;19961;-85
2022/03/27 02:10:09;;;;;;;;;;;8.80;92.30;;;;;;5072995;28;19909;-86
2022/03/27 02:12:35;;;;;;;;;;;9.00;92.40;;;;;;5052978;28;19939;-85
2022/03/27 02:15:07;;;;;;;;;;;9.30;91.70;;;;;;5055355;28;19916;-84
2022/03/27 02:17:39;;;;;;;;;;;9.20;91.60;;;;;;5058781;28;19924;-84
2022/03/27 02:20:05;;;;;;;;;;;9.30;91.50;;;;;;5072889;28;19909;-84
2022/03/27 02:22:31;;;;;;;;;;;9.20;91.90;;;;;;5072915;28;19913;-85
2022/03/27 02:24:56;;;;;;;;;;;8.90;92.60;;;;;;5073146;28;20280;-85
2022/03/27 02:27:22;;;;;;;;;;;9.00;92.70;;;;;;5071918;28;19916;-84
2022/03/27 02:29:48;;;;;;;;;;;9.00;92.70;;;;;;5072847;28;19948;-85
2022/03/27 02:32:14;;;;;;;;;;;9.10;92.70;;;;;;5073122;28;19912;-84
2022/03/27 02:34:40;;;;;;;;;;;8.90;92.60;;;;;;5072814;28;19954;-85
2022/03/27 02:37:06;;;;;;;;;;;8.80;93.50;;;;;;5073072;28;19912;-84
2022/03/27 02:39:32;;;;;;;;;;;8.80;93.20;;;;;;5069913;28;19917;-85
2022/03/27 02:41:58;;;;;;;;;;;9.00;92.70;;;;;;5052956;28;20007;-84
2022/03/27 02:44:23;;;;;;;;;;;8.90;92.60;;;;;;5051791;28;19991;-84
2022/03/27 02:46:50;;;;;;;;;;;8.90;92.60;;;;;;5052645;28;19909;-86
2022/03/27 02:49:16;;;;;;;;;;;9.00;92.30;;;;;;5051514;28;19970;-85
2022/03/27 02:51:44;;;;;;;;;;;9.10;92.50;;;;;;5052947;28;19916;-84
2022/03/27 02:54:10;;;;;;;;;;;9.00;91.60;;;;;;5052840;28;19958;-85
2022/03/27 02:56:35;;;;;;;;;;;9.00;91.90;;;;;;5052892;28;19999;-83
2022/03/27 02:59:01;;;;;;;;;;;8.90;92.20;;;;;;5052874;28;19909;-84
2022/03/27 03:01:27;;;;;;;;;;;8.80;93.20;;;;;;5052335;28;20392;-83
2022/03/27 03:03:52;;;;;;;;;;;8.50;94.00;;;;;;5052714;28;19917;-85
2022/03/27 03:06:20;;;;;;;;;;;8.30;95.20;;;;;;5052797;28;19932;-83
2022/03/27 03:08:46;;;;;;;;;;;8.50;95.20;;;;;;5052660;28;19908;-84
2022/03/27 03:11:13;;;;;;;;;;;8.50;94.90;;;;;;5052327;28;19971;-85
2022/03/27 03:13:39;;;;;;;;;;;8.60;94.60;;;;;;5032937;28;19925;-82
2022/03/27 03:16:06;;;;;;;;;;;8.60;93.90;;;;;;5054542;28;19916;-84
2022/03/27 03:18:34;;;;;;;;;;;8.50;94.70;;;;;;5056329;28;19921;-85
2022/03/27 03:20:59;;;;;;;;;;;8.10;95.60;;;;;;5055805;28;19955;-83
2022/03/27 03:23:25;;;;;;;;;;;7.90;95.50;;;;;;5056214;28;19991;-85
2022/03/27 03:25:50;;;;;;;;;;;7.80;95.30;;;;;;5038240;28;19952;-85
2022/03/27 03:28:16;;;;;;;;;;;7.80;96.00;;;;;;5056196;28;19952;-83
2022/03/27 03:30:42;;;;;;;;;;;8.10;95.80;;;;;;5055630;28;19909;-84
2022/03/27 03:33:07;;;;;;;;;;;8.30;95.10;;;;;;5038104;28;19908;-85
2022/03/27 03:35:33;;;;;;;;;;;8.40;94.50;;;;;;5056237;28;19920;-85
2022/03/27 03:37:59;;;;;;;;;;;8.40;94.40;;;;;;5055958;28;20323;-83
2022/03/27 03:40:24;;;;;;;;;;;8.50;94.40;;;;;;5055595;28;20288;-83
2022/03/27 03:42:50;;;;;;;;;;;8.30;93.90;;;;;;5055835;28;19913;-82
2022/03/27 03:45:15;;;;;;;;;;;8.30;93.30;;;;;;5037831;28;19931;-83
2022/03/27 03:47:41;;;;;;;;;;;8.10;92.60;;;;;;5055826;28;20443;-83
2022/03/27 03:50:07;;;;;;;;;;;7.90;93.20;;;;;;5043230;28;19908;-85
2022/03/27 03:52:32;;;;;;;;;;;7.90;93.50;;;;;;5057868;28;19962;-83
2022/03/27 03:54:58;;;;;;;;;;;8.10;93.30;;;;;;5075578;28;19909;-85
2022/03/27 03:57:23;;;;;;;;;;;7.90;93.60;;;;;;5075504;28;19909;-84
2022/03/27 03:59:49;;;;;;;;;;;7.80;94.30;;;;;;5075428;28;20020;-83
2022/03/27 04:02:18;;;;;;;;;;;7.50;95.40;;;;;;5075456;28;20258;-84
2022/03/27 04:04:44;;;;;;;;;;;7.50;95.50;;;;;;5057691;28;20265;-84
2022/03/27 04:07:09;;;;;;;;;;;7.40;96.50;;;;;;5075436;28;19930;-85
2022/03/27 04:09:35;;;;;;;;;;;7.40;97.50;;;;;;5075017;28;19978;-84
2022/03/27 04:12:01;;;;;;;;;;;7.70;97.00;;;;;;5057329;28;19908;-85
2022/03/27 04:14:29;;;;;;;;;;;7.80;96.20;;;;;;5037925;28;20019;-86
2022/03/27 04:16:56;;;;;;;;;;;7.90;95.60;;;;;;5056724;28;19920;-83
2022/03/27 04:19:22;;;;;;;;;;;7.90;95.30;;;;;;5056971;28;19957;-83
2022/03/27 04:21:47;;;;;;;;;;;7.80;95.30;;;;;;5056604;28;20097;-85
2022/03/27 04:24:13;;;;;;;;;;;7.70;95.00;;;;;;5075042;28;19913;-85
2022/03/27 04:26:40;;;;;;;;;;;7.60;94.70;;;;;;5057115;28;19909;-84
2022/03/27 04:29:06;;;;;;;;;;;7.20;96.30;;;;;;5074973;28;19954;-84
2022/03/27 04:31:32;;;;;;;;;;;7.30;96.50;;;;;;5074537;28;19912;-85
2022/03/27 04:33:58;;;;;;;;;;;7.40;96.10;;;;;;5074773;28;19915;-83
2022/03/27 04:36:23;;;;;;;;;;;7.40;95.70;;;;;;5074940;28;20422;-85
2022/03/27 04:38:49;;;;;;;;;;;7.20;96.50;;;;;;5074938;28;20261;-84
2022/03/27 04:41:15;;;;;;;;;;;7.10;96.70;;;;;;5074297;28;20439;-85
2022/03/27 04:43:40;;;;;;;;;;;7.10;97.10;;;;;;5074719;28;19912;-85
2022/03/27 04:46:07;;;;;;;;;;;7.00;97.90;;;;;;5074499;28;20330;-85
2022/03/27 04:48:34;;;;;;;;;;;7.00;97.90;;;;;;5074668;28;19934;-85
2022/03/27 04:50:59;;;;;;;;;;;6.70;98.70;;;;;;5074189;28;19909;-83
2022/03/27 04:53:25;;;;;;;;;;;6.80;99.80;;;;;;5074449;28;19913;-85
2022/03/27 04:55:51;;;;;;;;;;;6.80;99.70;;;;;;5074463;28;19908;-84
2022/03/27 04:58:17;;;;;;;;;;;6.70;99.50;;;;;;5074185;28;19916;-83
2022/03/27 05:00:43;;;;;;;;;;;6.80;99.90;;;;;;5074079;28;19921;-84
2022/03/27 05:03:08;;;;;;;;;;;7.00;99.90;;;;;;5056436;28;19908;-84
2022/03/27 05:05:34;;;;;;;;;;;7.00;99.00;;;;;;5074281;28;19955;-85
2022/03/27 05:08:00;;;;;;;;;;;6.80;99.90;;;;;;5074323;28;19909;-85
2022/03/27 05:10:26;;;;;;;;;;;6.80;99.90;;;;;;5073660;28;19970;-83
2022/03/27 05:12:52;;;;;;;;;;;7.10;99.40;;;;;;5054686;28;19918;-85
2022/03/27 05:15:18;;;;;;;;;;;7.30;98.30;;;;;;5054004;28;19913;-85
2022/03/27 05:17:51;;;;;;;;;;;7.30;96.60;;;;;;5053853;28;19931;-84
2022/03/27 05:20:17;;;;;;;;;;;7.30;96.00;;;;;;5053761;28;19962;-83
2022/03/27 05:22:43;;;;;;;;;;;7.10;96.10;;;;;;5053733;28;19919;-85
2022/03/27 05:25:10;;;;;;;;;;;7.10;95.80;;;;;;5054041;28;19995;-83
2022/03/27 05:27:50;;;;;;;;;;;7.00;96.00;;;;;;5053135;28;20195;-84
2022/03/27 05:30:17;;;;;;;;;;;6.90;96.50;;;;;;5053616;28;19909;-85
2022/03/27 05:32:43;;;;;;;;;;;6.80;96.30;;;;;;5053661;28;19924;-85
2022/03/27 05:35:09;;;;;;;;;;;6.70;96.20;;;;;;5035930;28;19909;-84
2022/03/27 05:37:36;;;;;;;;;;;6.80;97.00;;;;;;5053559;28;20324;-84
2022/03/27 05:40:03;;;;;;;;;;;6.70;96.70;;;;;;5053340;28;19952;-85
2022/03/27 05:42:29;;;;;;;;;;;6.50;97.30;;;;;;5035786;28;19908;-85
2022/03/27 05:44:54;;;;;;;;;;;6.40;97.50;;;;;;5052307;28;20327;-85
2022/03/27 05:47:20;;;;;;;;;;;6.40;97.60;;;;;;5053632;28;19916;-83
2022/03/27 05:49:47;;;;;;;;;;;6.50;98.10;;;;;;5053601;28;19959;-83
2022/03/27 05:52:14;;;;;;;;;;;6.80;97.80;;;;;;5053025;28;20050;-84
2022/03/27 05:54:40;;;;;;;;;;;6.80;97.90;;;;;;5035508;28;19909;-84
2022/03/27 05:57:05;;;;;;;;;;;6.60;99.00;;;;;;5053399;28;20384;-84
2022/03/27 05:59:31;;;;;;;;;;;6.70;99.30;;;;;;5053479;28;19999;-84
2022/03/27 06:01:57;;;;;;;;;;;6.90;98.70;;;;;;5031592;28;20002;-84
2022/03/27 06:04:22;;;;;;;;;;;6.90;97.50;;;;;;5033433;28;19913;-82
2022/03/27 06:06:48;;;;;;;;;;;7.00;96.70;;;;;;5033426;28;19909;-85
2022/03/27 06:09:13;;;;;;;;;;;6.80;96.40;;;;;;5033381;28;20374;-83
2022/03/27 06:11:39;;;;;;;;;;;6.90;95.80;;;;;;5046608;28;19935;-84
2022/03/27 06:14:04;;;;;;;;;;;6.90;95.00;;;;;;5038002;28;19951;-83
2022/03/27 06:16:30;;;;;;;;;;;6.90;94.60;;;;;;5073263;28;19958;-82
2022/03/27 06:18:56;;;;;;;;;;;6.80;94.50;;;;;;5072829;28;20300;-83
2022/03/27 06:21:22;;;;;;;;;;;6.90;94.40;;;;;;5072727;28;19920;-82
2022/03/27 06:23:47;;;;;;;;;;;6.90;95.00;;;;;;5073222;28;19909;-86
2022/03/27 06:26:13;;;;;;;;;;;7.10;95.30;;;;;;5073274;28;19912;-84
2022/03/27 06:28:38;;;;;;;;;;;7.30;95.30;;;;;;5073148;28;19908;-84
2022/03/27 06:31:04;;;;;;;;;;;7.60;94.10;;;;;;5072790;28;19909;-83
2022/03/27 06:33:29;;;;;;;;;;;7.80;93.10;;;;;;5072868;28;19956;-85
2022/03/27 06:35:55;;;;;;;;;;;8.00;92.10;;;;;;5073047;28;19962;-84
2022/03/27 06:38:21;;;;;;;;;;;7.90;91.60;;;;;;5073109;28;20360;-84
2022/03/27 06:40:46;;;;;;;;;;;8.10;91.20;;;;;;5072639;28;19908;-85
2022/03/27 06:43:12;;;;;;;;;;;8.50;90.70;;;;;;5055096;28;19922;-85
2022/03/27 06:45:38;;;;;;;;;;;8.60;88.60;;;;;;5071535;28;19908;-84
2022/03/27 06:48:04;;;;;;;;;;;8.90;89.10;;;;;;5054972;28;19958;-84
2022/03/27 06:50:30;;;;;;;;;;;9.40;86.70;;;;;;5073733;28;19909;-85
2022/03/27 06:52:55;;;;;;;;;;;10.00;84.70;;;;;;5076789;28;20021;-83
2022/03/27 06:55:21;;;;;;;;;;;10.40;83.50;;;;;;5076910;28;19908;-84
2022/03/27 06:57:47;;;;;;;;;;;;;;;;;;5076514;28;19944;-84
2022/03/27 07:03:06;;;;;;;;;;;10.80;80.50;;;;;;5076680;28;19915;-86
2022/03/27 07:05:33;;;;;;;;;;;11.60;78.50;;;;;;5076761;28;19951;-85
2022/03/27 07:07:58;;;;;;;;;;;12.30;77.20;;;;;;5076548;28;19941;-84
2022/03/27 07:10:24;;;;;;;;;;;12.60;76.80;;;;;;5076083;28;19908;-85
2022/03/27 07:12:50;;;;;;;;;;;12.80;76.20;;;;;;5076373;28;19962;-85
2022/03/27 07:15:16;;;;;;;;;;;12.80;75.80;;;;;;5070274;28;19916;-86
2022/03/27 07:17:46;;;;;;;;;;;12.70;76.00;;;;;;5096448;28;19920;-86
2022/03/27 07:20:12;;;;;;;;;;;12.60;77.50;;;;;;5078423;28;20380;-86
2022/03/27 07:22:39;;;;;;;;;;;12.30;78.10;;;;;;5075915;28;19913;-84
2022/03/27 07:25:07;;;;;;;;;;;12.20;79.50;;;;;;5076197;28;19909;-83
2022/03/27 07:27:33;;;;;;;;;;;12.00;81.10;;;;;;5058261;28;20013;-84
2022/03/27 07:29:59;;;;;;;;;;;11.90;81.80;;;;;;5058137;28;19908;-84
2022/03/27 07:32:24;;;;;;;;;;;11.80;83.00;;;;;;5075485;28;20380;-84
2022/03/27 07:34:50;;;;;;;;;;;11.80;83.70;;;;;;5096349;28;19908;-84
2022/03/27 07:37:16;;;;;;;;;;;11.70;83.80;;;;;;5096304;28;19940;-86
2022/03/27 07:39:41;;;;;;;;;;;11.90;84.30;;;;;;5078094;28;19908;-84
2022/03/27 07:42:07;;;;;;;;;;;12.30;84.10;;;;;;5095717;28;19958;-86
2022/03/27 07:44:34;;;;;;;;;;;12.60;84.20;;;;;;5096147;28;20368;-84
2022/03/27 07:47:00;;;;;;;;;;;12.70;84.10;;;;;;5096059;28;19908;-85
2022/03/27 07:49:26;;;;;;;;;;;13.30;83.10;;;;;;5096145;28;19915;-84
2022/03/27 07:51:53;;;;;;;;;;;14.30;81.00;;;;;;5077312;28;19934;-84
2022/03/27 07:54:19;;;;;;;;;;;15.30;78.10;;;;;;5095987;28;19908;-86
2022/03/27 07:56:44;;;;;;;;;;;16.40;74.50;;;;;;5095860;28;19908;-86
2022/03/27 07:59:10;;;;;;;;;;;17.20;71.30;;;;;;5095829;28;19909;-85
2022/03/27 08:01:35;;;;;;;;;;;17.90;69.70;;;;;;5095131;28;19981;-86
2022/03/27 08:04:02;;;;;;;;;;;18.80;67.00;;;;;;5077586;28;20414;-85
2022/03/27 08:06:29;;;;;;;;;;;19.80;65.10;;;;;;5095769;28;19957;-85
2022/03/27 08:08:55;;;;;;;;;;;20.70;62.20;;;;;;5095482;28;19908;-84
2022/03/27 08:11:23;;;;;;;;;;;21.40;60.70;;;;;;5095207;28;19956;-85
2022/03/27 08:13:49;;;;;;;;;;;21.60;59.00;;;;;;5095587;28;19944;-86
2022/03/27 08:16:15;;;;;;;;;;;22.50;57.00;;;;;;5056889;28;19943;-87
2022/03/27 08:18:43;;;;;;;;;;;22.70;55.90;;;;;;5070757;28;19920;-84
2022/03/27 08:21:08;;;;;;;;;;;23.50;54.80;;;;;;5054874;28;19915;-84
2022/03/27 08:23:34;;;;;;;;;;;24.10;53.40;;;;;;5053962;28;19909;-86
2022/03/27 08:28:43;;;;;;;;;;;24.70;53.20;;;;;;5055010;28;19920;-85
2022/03/27 08:31:09;;;;;;;;;;;25.10;52.30;;;;;;5054748;28;19908;-86
2022/03/27 08:33:35;;;;;;;;;;;24.90;51.10;;;;;;5054723;28;20306;-86
2022/03/27 08:36:00;;;;;;;;;;;25.50;51.00;;;;;;5054964;28;19948;-85
2022/03/27 08:38:26;;;;;;;;;;;26.00;50.00;;;;;;5054853;28;19916;-86
2022/03/27 08:40:53;;;;;;;;;;;26.20;49.50;;;;;;5054668;28;19917;-84
2022/03/27 08:43:19;;;;;;;;;;;25.80;48.20;;;;;;5054653;28;19909;-86
2022/03/27 08:45:45;;;;;;;;;;;26.20;48.70;;;;;;5054642;28;19954;-87
2022/03/27 08:48:11;;;;;;;;;;;27.10;48.10;;;;;;5054636;28;19952;-84
2022/03/27 08:50:44;;;;;;;;;;;27.30;47.40;;;;;;5054461;28;19916;-87
2022/03/27 08:53:12;;;;;;;;;;;27.50;45.90;;;;;;5054540;28;19912;-86
2022/03/27 08:55:37;;;;;;;;;;;26.50;45.20;;;;;;5054498;28;19909;-85
2022/03/27 08:58:03;;;;;;;;;;;25.90;45.20;;;;;;5054362;28;20278;-85
2022/03/27 09:00:30;;;;;;;;;;;26.30;45.80;;;;;;5036539;28;19936;-85
2022/03/27 09:02:56;;;;;;;;;;;26.60;44.10;;;;;;5053973;28;19915;-86
2022/03/27 09:05:22;;;;;;;;;;;26.00;44.00;;;;;;5054284;28;19909;-85
2022/03/27 09:07:48;;;;;;;;;;;26.20;42.70;;;;;;5054414;28;19909;-85
2022/03/27 09:10:14;;;;;;;;;;;26.70;42.20;;;;;;5036146;28;19913;-84
2022/03/27 09:12:40;;;;;;;;;;;26.50;42.20;;;;;;5053153;28;19919;-85
2022/03/27 09:15:09;;;;;;;;;;;26.90;42.50;;;;;;5041126;28;19958;-86
2022/03/27 09:17:53;;;;;;;;;;;27.60;41.00;;;;;;5048885;28;19920;-85
2022/03/27 09:20:37;;;;;;;;;;;27.80;40.90;;;;;;5036151;28;19909;-86
2022/03/27 09:23:11;;;;;;;;;;;28.10;40.80;;;;;;5053836;28;20380;-86
2022/03/27 09:26:04;;;;;;;;;;;28.40;41.00;;;;;;5036102;28;20003;-85
2022/03/27 09:28:34;;;;;;;;;;;28.90;41.30;;;;;;5033929;28;19932;-86
2022/03/27 09:31:01;;;;;;;;;;;29.70;40.50;;;;;;5053692;28;20283;-86
2022/03/27 09:33:46;;;;;;;;;;;31.30;40.00;;;;;;5053629;28;19913;-85
2022/03/27 09:36:15;;;;;;;;;;;31.90;38.80;;;;;;5053903;28;19916;-87
2022/03/27 09:38:55;;;;;;;;;;;32.10;38.00;;;;;;5052510;28;19958;-85
2022/03/27 09:41:39;;;;;;;;;;;31.70;37.60;;;;;;5053420;28;20294;-85
2022/03/27 09:44:09;;;;;;;;;;;32.00;37.60;;;;;;5035881;28;19936;-86
2022/03/27 09:46:49;;;;;;;;;;;32.50;37.50;;;;;;5052094;28;19959;-86
2022/03/27 09:49:18;;;;;;;;;;;33.00;37.70;;;;;;5053560;28;19909;-82
2022/03/27 09:51:55;;;;;;;;;;;34.10;37.50;;;;;;5051845;28;19913;-83
2022/03/27 09:54:21;;;;;;;;;;;34.50;36.30;;;;;;5052214;28;19909;-83
2022/03/27 09:56:47;;;;;;;;;;;35.10;37.10;;;;;;5035580;28;20285;-84
2022/03/27 09:59:26;;;;;;;;;;;35.40;35.40;;;;;;5053415;28;19909;-86
2022/03/27 10:01:51;;;;;;;;;;;34.90;35.70;;;;;;5031833;28;19948;-84
2022/03/27 10:04:17;;;;;;;;;;;35.20;35.70;;;;;;5015799;28;19949;-85
2022/03/27 10:06:42;;;;;;;;;;;35.70;35.40;;;;;;5033454;28;20052;-85
2022/03/27 10:09:09;;;;;;;;;;;36.10;34.30;;;;;;5015580;28;20262;-84
2022/03/27 10:11:36;;;;;;;;;;;36.70;34.30;;;;;;5038978;28;19909;-85
2022/03/27 10:14:06;;;;;;;;;;;36.60;34.10;;;;;;5052034;28;19982;-84
2022/03/27 10:16:34;;;;;;;;;;;36.70;34.30;;;;;;5034367;28;20331;-83
2022/03/27 10:19:04;;;;;;;;;;;36.50;33.50;;;;;;5087227;28;20437;-83
2022/03/27 10:21:31;;;;;;;;;;;36.20;33.20;;;;;;5072897;28;19940;-83
2022/03/27 10:24:16;;;;;;;;;;;37.80;33.20;;;;;;5073744;28;20422;-85
2022/03/27 10:26:42;;;;;;;;;;;38.40;32.10;;;;;;5061512;28;19958;-84
2022/03/27 10:29:09;;;;;;;;;;;37.50;32.10;;;;;;5079941;28;19952;-83
2022/03/27 10:31:35;;;;;;;;;;;37.20;32.00;;;;;;5079535;28;19934;-86
2022/03/27 10:34:01;;;;;;;;;;;37.70;32.60;;;;;;5079604;28;19913;-83
2022/03/27 10:36:40;;;;;;;;;;;37.70;31.80;;;;;;5079898;28;20381;-84
2022/03/27 10:39:14;;;;;;;;;;;37.80;31.70;;;;;;5061745;28;20007;-84
2022/03/27 10:41:48;;;;;;;;;;;39.10;31.40;;;;;;5079377;28;19934;-86
2022/03/27 10:44:28;;;;;;;;;;;39.20;31.60;;;;;;5079822;28;20412;-85
2022/03/27 10:47:12;;;;;;;;;;;39.00;31.00;;;;;;5061431;28;19959;-85
2022/03/27 10:49:38;;;;;;;;;;;39.20;31.30;;;;;;5079591;28;19909;-85
2022/03/27 10:52:04;;;;;;;;;;;40.10;31.10;;;;;;5079369;28;19962;-84
2022/03/27 10:54:29;;;;;;;;;;;40.50;30.80;;;;;;5079572;28;19908;-85
2022/03/27 10:56:56;;;;;;;;;;;39.40;30.50;;;;;;5079444;28;19909;-86
2022/03/27 10:59:24;;;;;;;;;;;39.30;31.10;;;;;;5079673;28;19915;-84
2022/03/27 11:01:57;;;;;;;;;;;39.60;30.20;;;;;;5079066;28;20445;-85
2022/03/27 11:04:35;;;;;;;;;;;38.80;30.90;;;;;;5061554;28;19959;-84
2022/03/27 11:07:19;;;;;;;;;;;38.70;30.50;;;;;;5079242;28;19969;-85
2022/03/27 11:09:45;;;;;;;;;;;39.00;31.30;;;;;;5061166;28;19913;-86
2022/03/27 11:12:24;;;;;;;;;;;39.00;30.80;;;;;;5057773;28;19915;-84
2022/03/27 11:14:52;;;;;;;;;;;39.30;31.20;;;;;;5040759;28;20281;-85
2022/03/27 11:17:35;;;;;;;;;;;39.30;31.20;;;;;;5046113;28;19920;-85
2022/03/27 11:20:02;;;;;;;;;;;39.60;30.90;;;;;;5079481;28;19908;-84
2022/03/27 11:22:40;;;;;;;;;;;40.40;31.10;;;;;;5078785;28;19912;-86
2022/03/27 11:25:24;;;;;;;;;;;42.10;30.50;;;;;;5061319;28;20257;-86
2022/03/27 11:27:56;;;;;;;;;;;42.90;29.60;;;;;;5061228;28;19909;-85
2022/03/27 11:30:22;;;;;;;;;;;42.70;30.00;;;;;;5079230;28;20369;-85
2022/03/27 11:33:08;;;;;;;;;;;43.60;29.60;;;;;;5077523;28;19909;-85
2022/03/27 11:35:33;;;;;;;;;;;42.00;30.20;;;;;;5071118;28;20007;-85
2022/03/27 11:38:18;;;;;;;;;;;41.30;29.80;;;;;;5075597;28;19991;-85
2022/03/27 11:40:43;;;;;;;;;;;41.50;30.20;;;;;;5076106;28;20289;-84
2022/03/27 11:43:28;;;;;;;;;;;41.80;29.70;;;;;;5075365;28;19958;-85
2022/03/27 11:45:54;;;;;;;;;;;41.40;29.90;;;;;;5075633;28;19918;-85
2022/03/27 11:48:20;;;;;;;;;;;41.60;29.80;;;;;;5075971;28;19909;-84
2022/03/27 11:50:46;;;;;;;;;;;43.10;29.90;;;;;;5057935;28;20379;-85
2022/03/27 11:53:12;;;;;;;;;;;43.40;29.30;;;;;;5057555;28;20355;-84
2022/03/27 11:55:39;;;;;;;;;;;43.10;29.30;;;;;;5057687;28;19924;-85
2022/03/27 11:58:07;;;;;;;;;;;42.80;29.60;;;;;;5075612;28;19999;-85
2022/03/27 12:00:33;;;;;;;;;;;42.60;29.60;;;;;;5075605;28;19913;-84
2022/03/27 12:02:58;;;;;;;;;;;43.20;29.90;;;;;;5075070;28;20326;-85
2022/03/27 12:05:34;;;;;;;;;;;43.30;29.90;;;;;;5075640;28;19916;-83
2022/03/27 12:08:00;;;;;;;;;;;43.30;30.10;;;;;;5057535;28;19908;-84
2022/03/27 12:10:26;;;;;;;;;;;43.50;29.90;;;;;;5075239;28;20291;-84
2022/03/27 12:12:56;;;;;;;;;;;43.30;29.90;;;;;;5057042;28;19908;-84
2022/03/27 12:15:22;;;;;;;;;;;43.60;29.50;;;;;;5056159;28;19952;-85
2022/03/27 12:17:47;;;;;;;;;;;44.80;29.40;;;;;;5066312;28;19956;-83
2022/03/27 12:20:14;;;;;;;;;;;44.80;29.50;;;;;;5037351;28;19912;-84
2022/03/27 12:22:44;;;;;;;;;;;44.30;29.30;;;;;;5054685;28;20385;-85
2022/03/27 12:25:15;;;;;;;;;;;43.50;29.30;;;;;;5055173;28;19915;-85
2022/03/27 12:30:36;;;;;;;;;;;44.80;29.10;;;;;;5055173;28;19954;-85
2022/03/27 12:33:02;;;;;;;;;;;45.00;29.20;;;;;;5068340;28;19908;-85
2022/03/27 12:35:29;;;;;;;;;;;44.40;29.30;;;;;;5074976;28;19977;-84
2022/03/27 12:37:55;;;;;;;;;;;44.40;29.30;;;;;;5074973;28;20262;-85
2022/03/27 12:40:21;;;;;;;;;;;45.10;29.70;;;;;;5074841;28;19908;-84
2022/03/27 12:42:48;;;;;;;;;;;45.20;29.20;;;;;;5074449;28;19919;-85
2022/03/27 12:45:17;;;;;;;;;;;47.20;29.40;;;;;;5074564;28;20407;-85
2022/03/27 12:47:47;;;;;;;;;;;46.20;28.50;;;;;;5073903;28;19995;-85
2022/03/27 12:50:14;;;;;;;;;;;47.50;28.90;;;;;;5074520;28;20025;-85
2022/03/27 12:52:53;;;;;;;;;;;47.00;28.90;;;;;;5056359;28;20380;-85
2022/03/27 12:55:19;;;;;;;;;;;47.00;28.40;;;;;;5074409;28;20442;-84
2022/03/27 12:57:58;;;;;;;;;;;47.40;28.60;;;;;;5074402;28;19908;-85
2022/03/27 13:00:31;;;;;;;;;;;47.20;29.00;;;;;;5056504;28;20284;-85
2022/03/27 13:03:12;;;;;;;;;;;46.50;28.50;;;;;;5074043;28;19938;-84
2022/03/27 13:05:38;;;;;;;;;;;46.90;28.90;;;;;;5074386;28;19916;-84
2022/03/27 13:08:04;;;;;;;;;;;45.60;28.80;;;;;;5074363;28;19948;-85
2022/03/27 13:10:30;;;;;;;;;;;46.50;29.10;;;;;;5055992;28;20367;-84
2022/03/27 13:12:57;;;;;;;;;;;46.40;29.50;;;;;;5055922;28;20376;-85
2022/03/27 13:15:35;;;;;;;;;;;46.20;28.60;;;;;;5056183;28;19913;-84
2022/03/27 13:18:09;;;;;;;;;;;46.60;29.30;;;;;;5071389;28;19967;-85
2022/03/27 13:20:35;;;;;;;;;;;46.40;28.90;;;;;;5094294;28;19908;-83
2022/03/27 13:23:01;;;;;;;;;;;46.40;29.00;;;;;;5075514;28;19912;-84
2022/03/27 13:25:28;;;;;;;;;;;46.00;29.00;;;;;;5094196;28;20368;-83
2022/03/27 13:27:53;;;;;;;;;;;45.10;29.30;;;;;;5094294;28;19912;-85
2022/03/27 13:30:19;;;;;;;;;;;46.80;28.90;;;;;;5094168;28;19953;-84
2022/03/27 13:32:44;;;;;;;;;;;45.80;28.40;;;;;;5072205;28;19915;-86
2022/03/27 13:35:10;;;;;;;;;;;45.50;28.50;;;;;;5073769;28;19909;-85
2022/03/27 13:37:36;;;;;;;;;;;45.40;28.90;;;;;;5073759;28;20026;-85
2022/03/27 13:40:01;;;;;;;;;;;45.30;29.00;;;;;;5073740;28;19923;-84
2022/03/27 13:45:11;;;;;;;;;;;44.80;28.40;;;;;;5073745;28;20047;-85
2022/03/27 13:47:37;;;;;;;;;;;44.20;29.00;;;;;;5055732;28;19954;-84
2022/03/27 13:50:03;;;;;;;;;;;45.50;28.90;;;;;;5073608;28;19971;-85
2022/03/27 13:52:28;;;;;;;;;;;44.70;28.70;;;;;;5073236;28;20316;-85
2022/03/27 13:54:54;;;;;;;;;;;44.40;29.20;;;;;;5055677;28;19997;-85
2022/03/27 13:57:19;;;;;;;;;;;45.90;28.80;;;;;;5073430;28;19909;-83
2022/03/27 13:59:45;;;;;;;;;;;45.60;29.00;;;;;;5073030;28;20388;-85
2022/03/27 14:02:10;;;;;;;;;;;44.40;29.00;;;;;;5073082;28;20019;-84
2022/03/27 14:04:36;;;;;;;;;;;43.80;29.40;;;;;;5073420;28;19915;-85
2022/03/27 14:07:02;;;;;;;;;;;43.10;29.50;;;;;;5073463;28;20368;-86
2022/03/27 14:09:27;;;;;;;;;;;44.20;28.90;;;;;;5055221;28;19995;-83
2022/03/27 14:11:53;;;;;;;;;;;43.50;28.90;;;;;;5073110;28;19912;-84
2022/03/27 14:14:19;;;;;;;;;;;43.20;29.10;;;;;;5055337;28;19909;-84
2022/03/27 14:16:45;;;;;;;;;;;42.50;29.30;;;;;;5048789;28;20353;-85
2022/03/27 14:19:11;;;;;;;;;;;42.00;29.20;;;;;;5053326;28;19952;-84
2022/03/27 14:21:37;;;;;;;;;;;41.60;29.80;;;;;;5052979;28;19916;-84
2022/03/27 14:24:02;;;;;;;;;;;41.20;29.40;;;;;;5071410;28;19913;-84
2022/03/27 14:26:28;;;;;;;;;;;39.40;29.80;;;;;;5073215;28;19916;-83
2022/03/27 14:28:53;;;;;;;;;;;40.00;30.00;;;;;;5073449;28;19957;-84
2022/03/27 14:31:19;;;;;;;;;;;40.90;29.20;;;;;;5073222;28;19915;-84
2022/03/27 14:33:47;;;;;;;;;;;40.10;29.10;;;;;;5054599;28;19915;-85
2022/03/27 14:36:14;;;;;;;;;;;39.60;29.40;;;;;;5073245;28;19909;-83
2022/03/27 14:38:40;;;;;;;;;;;39.60;29.40;;;;;;5055062;28;19954;-84